createdAt,value
2017-08-25T00:00:03.881Z,0
2017-08-25T00:01:13.178Z,0
2017-08-25T00:02:22.456Z,0
2017-08-25T00:03:32.228Z,0
2017-08-25T00:04:41.533Z,0
2017-08-25T00:05:50.492Z,0
2017-08-25T00:06:59.149Z,0
2017-08-25T00:08:08.137Z,0
2017-08-25T00:09:17.265Z,0
2017-08-25T00:10:26.239Z,0
2017-08-25T00:11:35.515Z,0
2017-08-25T00:12:44.482Z,0
2017-08-25T00:13:53.453Z,0
2017-08-25T00:15:02.901Z,0
2017-08-25T00:16:11.578Z,0
2017-08-25T00:17:20.309Z,0
2017-08-25T00:18:29.602Z,0
2017-08-25T00:19:38.593Z,0
2017-08-25T00:20:48.030Z,0
2017-08-25T00:21:57.346Z,0
2017-08-25T00:23:06.006Z,0
2017-08-25T00:24:15.931Z,0
2017-08-25T00:25:24.897Z,0
2017-08-25T00:26:33.888Z,0
2017-08-25T00:27:42.546Z,0
2017-08-25T00:28:51.534Z,0
2017-08-25T00:30:00.818Z,0
2017-08-25T00:31:09.784Z,0
2017-08-25T00:32:18.925Z,0
2017-08-25T00:33:28.224Z,0
2017-08-25T00:34:36.873Z,0
2017-08-25T00:35:45.540Z,0
2017-08-25T00:36:54.517Z,0
2017-08-25T00:38:03.844Z,0
2017-08-25T00:39:13.126Z,0
2017-08-25T00:40:22.414Z,0
2017-08-25T00:41:31.702Z,0
2017-08-25T00:42:40.695Z,0
2017-08-25T00:43:49.844Z,0
2017-08-25T00:44:59.203Z,0
2017-08-25T00:46:07.865Z,0
2017-08-25T00:47:16.889Z,0
2017-08-25T00:48:26.171Z,0
2017-08-25T00:49:34.823Z,0
2017-08-25T00:50:44.116Z,0
2017-08-25T00:51:52.773Z,0
2017-08-25T00:53:01.777Z,0
2017-08-25T00:54:11.073Z,0
2017-08-25T00:55:20.137Z,0
2017-08-25T00:56:29.117Z,0
2017-08-25T00:57:38.410Z,0
2017-08-25T00:58:47.142Z,0
2017-08-25T00:59:56.455Z,0
2017-08-25T01:01:06.079Z,0
2017-08-25T01:02:15.367Z,0
2017-08-25T01:03:24.348Z,0
2017-08-25T01:04:34.266Z,0
2017-08-25T01:05:43.231Z,0
2017-08-25T01:06:52.253Z,0
2017-08-25T01:08:01.530Z,0
2017-08-25T01:09:10.181Z,0
2017-08-25T01:10:19.460Z,0
2017-08-25T01:11:28.743Z,0
2017-08-25T01:12:37.544Z,0
2017-08-25T01:13:46.846Z,0
2017-08-25T01:14:55.505Z,0
2017-08-25T01:16:04.225Z,0
2017-08-25T01:17:13.504Z,0
2017-08-25T01:18:22.792Z,0
2017-08-25T01:19:31.510Z,0
2017-08-25T01:20:40.470Z,0
2017-08-25T01:21:49.747Z,0
2017-08-25T01:22:59.025Z,0
2017-08-25T01:24:08.652Z,0
2017-08-25T01:25:17.952Z,0
2017-08-25T01:26:27.543Z,0
2017-08-25T01:27:36.218Z,0
2017-08-25T01:28:44.875Z,0
2017-08-25T01:29:54.017Z,0
2017-08-25T01:31:03.607Z,0
2017-08-25T01:32:12.888Z,0
2017-08-25T01:33:22.186Z,0
2017-08-25T01:34:31.166Z,0
2017-08-25T01:35:40.282Z,0
2017-08-25T01:36:49.246Z,0
2017-08-25T01:37:57.893Z,0
2017-08-25T01:39:06.856Z,0
2017-08-25T01:40:15.848Z,0
2017-08-25T01:41:24.508Z,0
2017-08-25T01:42:33.484Z,0
2017-08-25T01:43:42.498Z,0
2017-08-25T01:44:52.096Z,0
2017-08-25T01:46:01.065Z,0
2017-08-25T01:47:10.191Z,0
2017-08-25T01:48:19.182Z,0
2017-08-25T01:49:28.454Z,0
2017-08-25T01:50:37.430Z,0
2017-08-25T01:51:46.391Z,0
2017-08-25T01:52:55.351Z,0
2017-08-25T01:54:04.973Z,0
2017-08-25T01:55:13.624Z,0
2017-08-25T01:56:22.610Z,0
2017-08-25T01:57:32.236Z,0
2017-08-25T01:58:41.678Z,0
2017-08-25T01:59:50.642Z,0
2017-08-25T02:01:00.569Z,0
2017-08-25T02:02:10.167Z,0
2017-08-25T02:03:19.756Z,0
2017-08-25T02:04:29.181Z,0
2017-08-25T02:05:38.138Z,0
2017-08-25T02:06:48.039Z,0
2017-08-25T02:07:56.707Z,0
2017-08-25T02:09:05.986Z,0
2017-08-25T02:10:14.647Z,0
2017-08-25T02:11:23.296Z,0
2017-08-25T02:12:32.921Z,0
2017-08-25T02:13:41.890Z,0
2017-08-25T02:14:50.854Z,0
2017-08-25T02:15:59.666Z,0
2017-08-25T02:17:08.938Z,0
2017-08-25T02:18:18.214Z,0
2017-08-25T02:19:27.181Z,0
2017-08-25T02:20:36.148Z,0
2017-08-25T02:21:45.648Z,0
2017-08-25T02:22:54.969Z,0
2017-08-25T02:24:04.576Z,0
2017-08-25T02:25:13.856Z,0
2017-08-25T02:26:22.858Z,0
2017-08-25T02:27:31.970Z,0
2017-08-25T02:28:40.936Z,0
2017-08-25T02:29:49.588Z,0
2017-08-25T02:30:58.928Z,0
2017-08-25T02:32:09.526Z,0
2017-08-25T02:33:18.485Z,0
2017-08-25T02:34:27.482Z,0
2017-08-25T02:35:36.454Z,0
2017-08-25T02:36:45.416Z,0
2017-08-25T02:37:55.035Z,0
2017-08-25T02:39:04.008Z,0
2017-08-25T02:40:12.979Z,0
2017-08-25T02:41:21.953Z,0
2017-08-25T02:42:31.572Z,0
2017-08-25T02:43:40.547Z,0
2017-08-25T02:44:49.362Z,0
2017-08-25T02:45:58.013Z,0
2017-08-25T02:47:06.673Z,0
2017-08-25T02:48:15.983Z,0
2017-08-25T02:49:25.262Z,0
2017-08-25T02:50:34.554Z,0
2017-08-25T02:51:43.847Z,0
2017-08-25T02:52:53.457Z,0
2017-08-25T02:54:02.485Z,0
2017-08-25T02:55:11.789Z,0
2017-08-25T02:56:21.537Z,0
2017-08-25T02:57:30.511Z,0
2017-08-25T02:58:40.117Z,0
2017-08-25T02:59:49.470Z,0
2017-08-25T03:00:58.149Z,0
2017-08-25T03:02:07.578Z,0
2017-08-25T03:03:16.596Z,0
2017-08-25T03:04:25.878Z,0
2017-08-25T03:05:34.539Z,0
2017-08-25T03:06:43.515Z,0
2017-08-25T03:07:52.615Z,0
2017-08-25T03:09:01.608Z,0
2017-08-25T03:10:10.902Z,0
2017-08-25T03:11:20.183Z,0
2017-08-25T03:12:29.782Z,0
2017-08-25T03:13:38.927Z,0
2017-08-25T03:14:48.199Z,0
2017-08-25T03:15:57.182Z,0
2017-08-25T03:17:06.785Z,0
2017-08-25T03:18:16.072Z,0
2017-08-25T03:19:25.461Z,0
2017-08-25T03:20:35.372Z,0
2017-08-25T03:21:44.337Z,0
2017-08-25T03:22:52.989Z,0
2017-08-25T03:24:01.648Z,0
2017-08-25T03:25:10.736Z,0
2017-08-25T03:26:19.712Z,0
2017-08-25T03:27:28.370Z,0
2017-08-25T03:28:37.347Z,0
2017-08-25T03:29:46.626Z,0
2017-08-25T03:30:56.694Z,0
2017-08-25T03:32:05.358Z,0
2017-08-25T03:33:14.652Z,0
2017-08-25T03:34:23.929Z,0
2017-08-25T03:35:33.226Z,0
2017-08-25T03:36:42.366Z,0
2017-08-25T03:37:51.017Z,0
2017-08-25T03:39:00.305Z,0
2017-08-25T03:40:09.916Z,0
2017-08-25T03:41:18.908Z,0
2017-08-25T03:42:27.730Z,0
2017-08-25T03:43:36.712Z,0
2017-08-25T03:44:45.689Z,0
2017-08-25T03:45:54.683Z,0
2017-08-25T03:47:03.987Z,0
2017-08-25T03:48:12.656Z,0
2017-08-25T03:49:22.254Z,0
2017-08-25T03:50:31.553Z,0
2017-08-25T03:51:40.524Z,0
2017-08-25T03:52:49.509Z,0
2017-08-25T03:53:59.283Z,0
2017-08-25T03:55:08.243Z,0
2017-08-25T03:56:16.982Z,0
2017-08-25T03:57:25.648Z,0
2017-08-25T03:58:34.661Z,0
2017-08-25T03:59:44.354Z,0
2017-08-25T04:00:53.639Z,0
2017-08-25T04:02:02.610Z,0
2017-08-25T04:03:11.596Z,0
2017-08-25T04:04:20.565Z,0
2017-08-25T04:05:30.223Z,0
2017-08-25T04:06:39.189Z,0
2017-08-25T04:07:48.788Z,0
2017-08-25T04:08:58.121Z,0
2017-08-25T04:10:07.432Z,0
2017-08-25T04:11:16.866Z,0
2017-08-25T04:12:25.525Z,0
2017-08-25T04:13:34.812Z,0
2017-08-25T04:14:43.776Z,0
2017-08-25T04:15:52.735Z,4
2017-08-25T04:17:02.702Z,4
2017-08-25T04:18:11.361Z,0
2017-08-25T04:19:20.640Z,4
2017-08-25T04:20:29.960Z,4
2017-08-25T04:21:39.551Z,4
2017-08-25T04:22:48.508Z,8
2017-08-25T04:23:58.126Z,8
2017-08-25T04:25:07.731Z,8
2017-08-25T04:26:17.332Z,8
2017-08-25T04:27:26.299Z,12
2017-08-25T04:28:35.118Z,12
2017-08-25T04:29:43.800Z,8
2017-08-25T04:30:52.795Z,8
2017-08-25T04:32:02.086Z,12
2017-08-25T04:33:12.003Z,12
2017-08-25T04:34:21.285Z,12
2017-08-25T04:35:30.574Z,16
2017-08-25T04:36:39.879Z,16
2017-08-25T04:37:48.530Z,20
2017-08-25T04:38:58.118Z,24
2017-08-25T04:40:07.565Z,32
2017-08-25T04:41:16.565Z,36
2017-08-25T04:42:25.220Z,36
2017-08-25T04:43:34.189Z,44
2017-08-25T04:44:43.796Z,52
2017-08-25T04:45:52.764Z,60
2017-08-25T04:47:01.411Z,64
2017-08-25T04:48:10.999Z,72
2017-08-25T04:49:20.632Z,84
2017-08-25T04:50:29.577Z,92
2017-08-25T04:51:38.589Z,104
2017-08-25T04:52:47.569Z,120
2017-08-25T04:53:56.868Z,128
2017-08-25T04:55:05.850Z,132
2017-08-25T04:56:14.818Z,132
2017-08-25T04:57:24.245Z,136
2017-08-25T04:58:34.144Z,144
2017-08-25T04:59:43.411Z,148
2017-08-25T05:00:52.060Z,160
2017-08-25T05:02:01.021Z,172
2017-08-25T05:03:09.831Z,172
2017-08-25T05:04:18.869Z,176
2017-08-25T05:05:28.145Z,176
2017-08-25T05:06:36.807Z,176
2017-08-25T05:07:46.095Z,176
2017-08-25T05:08:54.798Z,188
2017-08-25T05:10:03.761Z,204
2017-08-25T05:11:13.031Z,216
2017-08-25T05:12:22.401Z,228
2017-08-25T05:13:31.988Z,240
2017-08-25T05:14:41.108Z,272
2017-08-25T05:15:50.077Z,296
2017-08-25T05:16:59.371Z,316
2017-08-25T05:18:08.336Z,340
2017-08-25T05:19:17.623Z,360
2017-08-25T05:20:26.594Z,404
2017-08-25T05:21:35.562Z,436
2017-08-25T05:22:44.542Z,460
2017-08-25T05:23:53.196Z,476
2017-08-25T05:25:01.852Z,468
2017-08-25T05:26:10.974Z,464
2017-08-25T05:27:19.627Z,456
2017-08-25T05:28:28.918Z,452
2017-08-25T05:29:38.194Z,456
2017-08-25T05:30:47.202Z,460
2017-08-25T05:31:55.955Z,460
2017-08-25T05:33:05.238Z,468
2017-08-25T05:34:14.208Z,476
2017-08-25T05:35:23.171Z,496
2017-08-25T05:36:32.466Z,520
2017-08-25T05:37:41.795Z,556
2017-08-25T05:38:51.115Z,596
2017-08-25T05:40:00.409Z,624
2017-08-25T05:41:09.722Z,644
2017-08-25T05:42:18.385Z,648
2017-08-25T05:43:27.418Z,664
2017-08-25T05:44:36.401Z,672
2017-08-25T05:45:45.380Z,736
2017-08-25T05:46:54.710Z,760
2017-08-25T05:48:03.383Z,756
2017-08-25T05:49:12.847Z,812
2017-08-25T05:50:22.491Z,868
2017-08-25T05:51:57.478Z,932
2017-08-25T05:53:06.455Z,992
2017-08-25T05:54:15.587Z,1116
2017-08-25T05:55:24.576Z,1216
2017-08-25T05:56:33.555Z,1120
2017-08-25T05:57:42.540Z,1128
2017-08-25T05:58:51.520Z,1080
2017-08-25T06:00:00.546Z,1084
2017-08-25T06:01:10.167Z,1076
2017-08-25T06:02:18.829Z,1136
2017-08-25T06:03:27.812Z,960
2017-08-25T06:04:37.152Z,956
2017-08-25T06:05:46.455Z,888
2017-08-25T06:06:55.760Z,868
2017-08-25T06:08:04.759Z,872
2017-08-25T06:09:14.051Z,964
2017-08-25T06:10:23.671Z,1028
2017-08-25T06:11:32.407Z,1036
2017-08-25T06:12:41.062Z,1096
2017-08-25T06:13:50.055Z,1212
2017-08-25T06:14:59.348Z,1288
2017-08-25T06:16:08.960Z,1340
2017-08-25T06:17:18.689Z,1412
2017-08-25T06:18:28.301Z,1492
2017-08-25T06:19:38.346Z,1572
2017-08-25T06:20:47.727Z,1628
2017-08-25T06:21:56.722Z,1724
2017-08-25T06:23:06.077Z,1832
2017-08-25T06:24:15.368Z,1872
2017-08-25T06:25:24.395Z,1904
2017-08-25T06:26:33.368Z,1852
2017-08-25T06:27:42.364Z,1776
2017-08-25T06:28:51.693Z,1656
2017-08-25T06:30:00.358Z,1552
2017-08-25T06:31:09.340Z,1512
2017-08-25T06:32:18.374Z,1568
2017-08-25T06:33:27.045Z,1668
2017-08-25T06:34:36.123Z,1584
2017-08-25T06:35:45.107Z,1444
2017-08-25T06:36:54.154Z,1272
2017-08-25T06:38:03.446Z,1180
2017-08-25T06:39:12.425Z,1020
2017-08-25T06:40:21.090Z,976
2017-08-25T06:41:30.398Z,972
2017-08-25T06:42:39.066Z,996
2017-08-25T06:43:48.351Z,976
2017-08-25T06:44:57.016Z,920
2017-08-25T06:46:06.345Z,900
2017-08-25T06:47:15.029Z,976
2017-08-25T06:48:23.706Z,1012
2017-08-25T06:49:33.016Z,1160
2017-08-25T06:50:42.035Z,1412
2017-08-25T06:51:51.035Z,1532
2017-08-25T06:52:59.726Z,1612
2017-08-25T06:54:09.023Z,1804
2017-08-25T06:55:18.323Z,1940
2017-08-25T06:56:27.695Z,1936
2017-08-25T06:57:37.095Z,1880
2017-08-25T06:58:46.080Z,1896
2017-08-25T06:59:54.754Z,2092
2017-08-25T07:01:04.077Z,2376
2017-08-25T07:02:13.388Z,2616
2017-08-25T07:03:22.455Z,2492
2017-08-25T07:04:32.106Z,2036
2017-08-25T07:05:40.794Z,1896
2017-08-25T07:06:49.763Z,2116
2017-08-25T07:07:59.377Z,2336
2017-08-25T07:09:08.824Z,2552
2017-08-25T07:10:18.128Z,2560
2017-08-25T07:11:27.755Z,2620
2017-08-25T07:12:36.800Z,2780
2017-08-25T07:13:45.494Z,2784
2017-08-25T07:14:54.935Z,2728
2017-08-25T07:16:03.922Z,2700
2017-08-25T07:17:13.226Z,2740
2017-08-25T07:18:22.575Z,2824
2017-08-25T07:19:31.587Z,2756
2017-08-25T07:20:40.564Z,2364
2017-08-25T07:21:49.554Z,2048
2017-08-25T07:22:58.844Z,1748
2017-08-25T07:24:07.822Z,1712
2017-08-25T07:25:16.805Z,2000
2017-08-25T07:26:26.276Z,2188
2017-08-25T07:27:35.568Z,2340
2017-08-25T07:28:44.764Z,2496
2017-08-25T07:29:54.520Z,2896
2017-08-25T07:31:03.841Z,3004
2017-08-25T07:32:13.202Z,2904
2017-08-25T07:33:21.953Z,2912
2017-08-25T07:34:30.945Z,2984
2017-08-25T07:35:39.934Z,3276
2017-08-25T07:36:49.297Z,3416
2017-08-25T07:37:58.115Z,3512
2017-08-25T07:39:06.863Z,3664
2017-08-25T07:40:15.859Z,3636
2017-08-25T07:41:25.162Z,4252
2017-08-25T07:42:34.160Z,5396
2017-08-25T07:43:42.844Z,8472
2017-08-25T07:44:52.162Z,6240
2017-08-25T07:46:01.472Z,5252
2017-08-25T07:47:10.126Z,4916
2017-08-25T07:48:19.429Z,4532
2017-08-25T07:49:28.882Z,4592
2017-08-25T07:50:38.171Z,4880
2017-08-25T07:51:47.491Z,4772
2017-08-25T07:52:56.490Z,4140
2017-08-25T07:54:05.474Z,4180
2017-08-25T07:55:14.319Z,5116
2017-08-25T07:56:23.317Z,5524
2017-08-25T07:57:32.939Z,4192
2017-08-25T07:58:42.234Z,4096
2017-08-25T07:59:51.549Z,3620
2017-08-25T08:01:01.182Z,3388
2017-08-25T08:02:10.168Z,2968
2017-08-25T08:03:19.146Z,2600
2017-08-25T08:04:28.440Z,3076
2017-08-25T08:05:37.098Z,3300
2017-08-25T08:06:45.800Z,3392
2017-08-25T08:07:54.828Z,3204
2017-08-25T08:09:04.155Z,3432
2017-08-25T08:10:13.163Z,3604
2017-08-25T08:11:22.166Z,3532
2017-08-25T08:12:31.153Z,3512
2017-08-25T08:13:40.767Z,3360
2017-08-25T08:14:49.764Z,3628
2017-08-25T08:15:58.779Z,3664
2017-08-25T08:17:08.072Z,3616
2017-08-25T08:18:17.548Z,3428
2017-08-25T08:19:26.531Z,3384
2017-08-25T08:20:35.513Z,3428
2017-08-25T08:21:45.143Z,3456
2017-08-25T08:22:54.757Z,3476
2017-08-25T08:24:03.884Z,3640
2017-08-25T08:25:12.551Z,3764
2017-08-25T08:26:21.285Z,3660
2017-08-25T08:27:29.953Z,3172
2017-08-25T08:28:38.950Z,3116
2017-08-25T08:29:47.987Z,2888
2017-08-25T08:30:56.966Z,2904
2017-08-25T08:32:06.276Z,3196
2017-08-25T08:33:15.259Z,3232
2017-08-25T08:34:24.237Z,3316
2017-08-25T08:35:33.693Z,3312
2017-08-25T08:36:42.383Z,3456
2017-08-25T08:37:51.702Z,3492
2017-08-25T08:39:01.028Z,3324
2017-08-25T08:40:09.699Z,3260
2017-08-25T08:41:19.105Z,3156
2017-08-25T08:42:28.736Z,2968
2017-08-25T08:43:37.736Z,3072
2017-08-25T08:44:46.405Z,3032
2017-08-25T08:45:55.071Z,3100
2017-08-25T08:47:04.079Z,3188
2017-08-25T08:48:13.700Z,3080
2017-08-25T08:49:22.680Z,2964
2017-08-25T08:50:31.663Z,2860
2017-08-25T08:51:40.703Z,2912
2017-08-25T08:52:50.061Z,2920
2017-08-25T08:53:59.066Z,3004
2017-08-25T08:55:08.165Z,2988
2017-08-25T08:56:17.783Z,2908
2017-08-25T08:57:26.749Z,2856
2017-08-25T08:58:36.096Z,2784
2017-08-25T08:59:45.390Z,2768
2017-08-25T09:00:54.694Z,2592
2017-08-25T09:02:04.304Z,2516
2017-08-25T09:03:13.606Z,2560
2017-08-25T09:04:22.656Z,2504
2017-08-25T09:05:31.325Z,2364
2017-08-25T09:06:40.656Z,2416
2017-08-25T09:07:49.386Z,2524
2017-08-25T09:08:58.371Z,2512
2017-08-25T09:10:07.368Z,2456
2017-08-25T09:11:16.369Z,2468
2017-08-25T09:12:26.397Z,2732
2017-08-25T09:13:35.452Z,2704
2017-08-25T09:14:44.460Z,2716
2017-08-25T09:15:53.766Z,2544
2017-08-25T09:17:03.388Z,2624
2017-08-25T09:18:12.488Z,2736
2017-08-25T09:19:21.806Z,2652
2017-08-25T09:20:30.474Z,2580
2017-08-25T09:21:39.934Z,2512
2017-08-25T09:22:48.912Z,2404
2017-08-25T09:23:57.887Z,2324
2017-08-25T09:25:06.875Z,2300
2017-08-25T09:26:16.530Z,2284
2017-08-25T09:27:25.226Z,2276
2017-08-25T09:28:34.877Z,2228
2017-08-25T09:29:44.175Z,2236
2017-08-25T09:30:53.176Z,2260
2017-08-25T09:32:02.149Z,2192
2017-08-25T09:33:11.291Z,2132
2017-08-25T09:34:19.954Z,2088
2017-08-25T09:35:29.564Z,2020
2017-08-25T09:36:38.547Z,2040
2017-08-25T09:37:47.882Z,2060
2017-08-25T09:38:57.496Z,2032
2017-08-25T09:40:06.848Z,2020
2017-08-25T09:41:15.524Z,2008
2017-08-25T09:42:24.510Z,1968
2017-08-25T09:43:33.516Z,1928
2017-08-25T09:44:42.968Z,1860
2017-08-25T09:45:51.952Z,1832
2017-08-25T09:47:00.977Z,1820
2017-08-25T09:48:10.280Z,1804
2017-08-25T09:49:19.274Z,1812
2017-08-25T09:50:28.101Z,1812
2017-08-25T09:51:37.083Z,1784
2017-08-25T09:52:45.743Z,1744
2017-08-25T09:53:54.741Z,1740
2017-08-25T09:55:04.715Z,1736
2017-08-25T09:56:13.850Z,1712
2017-08-25T09:57:22.519Z,1668
2017-08-25T09:58:31.215Z,1656
2017-08-25T09:59:40.842Z,1688
2017-08-25T10:00:50.152Z,1688
2017-08-25T10:01:58.990Z,1676
2017-08-25T10:03:07.983Z,1672
2017-08-25T10:04:16.971Z,1672
2017-08-25T10:05:26.272Z,1668
2017-08-25T10:06:35.893Z,1644
2017-08-25T10:07:45.408Z,1632
2017-08-25T10:08:54.389Z,1612
2017-08-25T10:10:03.367Z,1600
2017-08-25T10:11:12.724Z,1568
2017-08-25T10:12:21.455Z,1532
2017-08-25T10:13:30.599Z,1504
2017-08-25T10:14:39.260Z,1476
2017-08-25T10:15:48.258Z,1532
2017-08-25T10:16:57.233Z,1584
2017-08-25T10:18:06.231Z,1604
2017-08-25T10:19:15.524Z,1596
2017-08-25T10:20:24.179Z,1580
2017-08-25T10:21:33.476Z,1532
2017-08-25T10:22:42.480Z,1488
2017-08-25T10:23:51.463Z,1488
2017-08-25T10:25:00.552Z,1516
2017-08-25T10:26:09.536Z,1528
2017-08-25T10:27:18.833Z,1516
2017-08-25T10:28:28.133Z,1492
2017-08-25T10:29:37.246Z,1464
2017-08-25T10:30:46.549Z,1444
2017-08-25T10:31:55.221Z,1448
2017-08-25T10:33:04.506Z,1448
2017-08-25T10:34:13.506Z,1448
2017-08-25T10:35:22.174Z,1460
2017-08-25T10:36:30.989Z,1440
2017-08-25T10:37:39.661Z,1436
2017-08-25T10:38:49.289Z,1400
2017-08-25T10:39:58.275Z,1384
2017-08-25T10:41:08.202Z,1420
2017-08-25T10:42:17.589Z,1468
2017-08-25T10:43:27.207Z,1484
2017-08-25T10:44:36.502Z,1452
2017-08-25T10:45:45.495Z,1416
2017-08-25T10:46:54.503Z,1388
2017-08-25T10:48:03.471Z,1336
2017-08-25T10:49:12.481Z,1300
2017-08-25T10:50:21.794Z,1296
2017-08-25T10:51:30.788Z,1256
2017-08-25T10:52:39.778Z,1252
2017-08-25T10:53:48.440Z,1276
2017-08-25T10:54:57.433Z,1304
2017-08-25T10:56:06.117Z,1328
2017-08-25T10:57:15.414Z,1336
2017-08-25T10:58:24.086Z,1336
2017-08-25T10:59:33.486Z,1332
2017-08-25T11:00:42.179Z,1336
2017-08-25T11:01:51.157Z,1320
2017-08-25T11:03:00.266Z,1328
2017-08-25T11:04:08.931Z,1324
2017-08-25T11:05:17.773Z,1328
2017-08-25T11:06:27.374Z,1364
2017-08-25T11:07:36.375Z,1388
2017-08-25T11:08:45.057Z,1396
2017-08-25T11:09:53.734Z,1400
2017-08-25T11:11:02.714Z,1372
2017-08-25T11:12:12.123Z,1336
2017-08-25T11:13:21.134Z,1304
2017-08-25T11:14:30.161Z,1320
2017-08-25T11:15:38.829Z,1312
2017-08-25T11:16:48.307Z,1300
2017-08-25T11:17:56.968Z,1288
2017-08-25T11:19:05.634Z,1276
2017-08-25T11:20:14.614Z,1252
2017-08-25T11:21:23.925Z,1232
2017-08-25T11:22:32.731Z,1216
2017-08-25T11:23:42.035Z,1196
2017-08-25T11:24:50.730Z,1196
2017-08-25T11:25:59.745Z,1192
2017-08-25T11:27:08.745Z,1196
2017-08-25T11:28:18.190Z,1216
2017-08-25T11:29:27.506Z,1216
2017-08-25T11:30:36.508Z,1212
2017-08-25T11:31:45.493Z,1212
2017-08-25T11:32:55.105Z,1188
2017-08-25T11:34:04.428Z,1196
2017-08-25T11:35:13.421Z,1232
2017-08-25T11:36:22.402Z,1252
2017-08-25T11:37:31.707Z,1292
2017-08-25T11:38:41.016Z,1404
2017-08-25T11:39:50.343Z,1444
2017-08-25T11:40:59.663Z,1568
2017-08-25T11:42:08.649Z,1628
2017-08-25T11:43:17.651Z,1664
2017-08-25T11:44:26.973Z,1744
2017-08-25T11:45:35.993Z,1700
2017-08-25T11:46:44.997Z,1724
2017-08-25T11:47:53.982Z,1776
2017-08-25T11:49:03.325Z,1844
2017-08-25T11:50:12.055Z,1892
2017-08-25T11:51:20.874Z,1940
2017-08-25T11:52:29.873Z,1940
2017-08-25T11:53:39.194Z,1984
2017-08-25T11:54:48.313Z,1904
2017-08-25T11:55:57.662Z,1744
2017-08-25T11:57:06.962Z,1684
2017-08-25T11:58:15.962Z,1640
2017-08-25T11:59:24.671Z,1612
2017-08-25T12:00:33.983Z,1676
2017-08-25T12:01:43.284Z,1756
2017-08-25T12:02:52.564Z,1940
2017-08-25T12:04:01.568Z,1860
2017-08-25T12:05:10.652Z,1772
2017-08-25T12:06:20.288Z,1820
2017-08-25T12:07:28.990Z,1776
2017-08-25T12:08:38.079Z,1752
2017-08-25T12:09:47.081Z,1700
2017-08-25T12:10:56.076Z,1640
2017-08-25T12:12:05.063Z,1744
2017-08-25T12:13:14.353Z,1748
2017-08-25T12:14:23.650Z,1716
2017-08-25T12:15:32.366Z,1656
2017-08-25T12:16:41.734Z,1688
2017-08-25T12:17:50.408Z,1628
2017-08-25T12:18:59.098Z,1656
2017-08-25T12:20:08.597Z,1668
2017-08-25T12:21:18.525Z,1776
2017-08-25T12:22:28.170Z,1688
2017-08-25T12:23:37.485Z,1636
2017-08-25T12:24:46.780Z,1680
2017-08-25T12:25:55.864Z,1648
2017-08-25T12:27:04.859Z,1572
2017-08-25T12:28:13.860Z,1552
2017-08-25T12:29:23.168Z,1580
2017-08-25T12:30:32.178Z,1688
2017-08-25T12:31:41.251Z,1744
2017-08-25T12:32:49.917Z,1808
2017-08-25T12:33:59.542Z,1808
2017-08-25T12:35:08.845Z,1712
2017-08-25T12:36:17.846Z,1592
2017-08-25T12:37:26.994Z,1620
2017-08-25T12:38:36.062Z,1664
2017-08-25T12:39:45.373Z,1624
2017-08-25T12:40:54.039Z,1488
2017-08-25T12:42:03.352Z,1356
2017-08-25T12:43:12.389Z,1268
2017-08-25T12:44:21.081Z,1276
2017-08-25T12:45:30.724Z,1248
2017-08-25T12:46:40.370Z,1216
2017-08-25T12:47:49.670Z,1228
2017-08-25T12:48:59.028Z,1172
2017-08-25T12:50:07.752Z,1104
2017-08-25T12:51:17.078Z,1108
2017-08-25T12:52:25.760Z,1176
2017-08-25T12:53:35.392Z,1144
2017-08-25T12:54:44.389Z,1132
2017-08-25T12:55:53.067Z,1116
2017-08-25T12:57:02.400Z,1192
2017-08-25T12:58:11.697Z,1224
2017-08-25T12:59:20.698Z,1216
2017-08-25T13:00:29.518Z,1184
2017-08-25T13:01:38.192Z,1160
2017-08-25T13:02:47.229Z,1176
2017-08-25T13:03:56.561Z,1156
2017-08-25T13:05:05.919Z,1140
2017-08-25T13:06:15.252Z,1116
2017-08-25T13:07:24.875Z,1144
2017-08-25T13:08:33.545Z,1172
2017-08-25T13:09:43.493Z,1152
2017-08-25T13:10:52.483Z,1148
2017-08-25T13:12:01.165Z,1236
2017-08-25T13:13:10.494Z,1244
2017-08-25T13:14:20.111Z,1232
2017-08-25T13:15:29.095Z,1256
2017-08-25T13:16:38.097Z,1344
2017-08-25T13:17:47.465Z,1348
2017-08-25T13:18:56.463Z,1556
2017-08-25T13:20:05.823Z,1608
2017-08-25T13:21:15.149Z,1552
2017-08-25T13:22:23.810Z,1456
2017-08-25T13:23:33.574Z,1372
2017-08-25T13:24:42.562Z,1444
2017-08-25T13:25:51.558Z,1484
2017-08-25T13:27:00.557Z,1520
2017-08-25T13:28:09.875Z,1532
2017-08-25T13:29:19.589Z,1508
2017-08-25T13:30:28.582Z,1492
2017-08-25T13:31:37.264Z,1404
2017-08-25T13:32:46.567Z,1368
2017-08-25T13:33:55.880Z,1336
2017-08-25T13:35:04.926Z,1372
2017-08-25T13:36:14.225Z,1416
2017-08-25T13:37:23.199Z,1432
2017-08-25T13:38:32.193Z,1432
2017-08-25T13:39:41.518Z,1464
2017-08-25T13:40:51.612Z,1512
2017-08-25T13:42:00.628Z,1552
2017-08-25T13:43:09.635Z,1508
2017-08-25T13:44:19.260Z,1512
2017-08-25T13:45:28.261Z,1504
2017-08-25T13:46:37.254Z,1488
2017-08-25T13:47:45.938Z,1432
2017-08-25T13:48:54.941Z,1368
2017-08-25T13:50:03.935Z,1344
2017-08-25T13:51:13.577Z,1364
2017-08-25T13:52:23.166Z,1392
2017-08-25T13:53:31.835Z,1384
2017-08-25T13:54:41.138Z,1332
2017-08-25T13:55:50.484Z,1280
2017-08-25T13:56:59.482Z,1192
2017-08-25T13:58:08.192Z,1204
2017-08-25T13:59:16.903Z,1220
2017-08-25T14:00:26.227Z,1224
2017-08-25T14:01:35.530Z,1232
2017-08-25T14:02:44.570Z,1228
2017-08-25T14:03:53.236Z,1196
2017-08-25T14:05:02.536Z,1212
2017-08-25T14:06:11.521Z,1216
2017-08-25T14:07:20.822Z,1216
2017-08-25T14:08:30.475Z,1196
2017-08-25T14:09:39.948Z,1184
2017-08-25T14:10:48.625Z,1188
2017-08-25T14:11:57.627Z,1200
2017-08-25T14:13:06.289Z,1196
2017-08-25T14:14:15.268Z,1148
2017-08-25T14:15:24.567Z,1128
2017-08-25T14:16:33.547Z,1092
2017-08-25T14:17:42.585Z,1032
2017-08-25T14:18:51.572Z,980
2017-08-25T14:20:00.566Z,980
2017-08-25T14:21:10.339Z,980
2017-08-25T14:22:20.012Z,972
2017-08-25T14:23:29.317Z,964
2017-08-25T14:24:39.011Z,972
2017-08-25T14:25:48.971Z,976
2017-08-25T14:26:58.312Z,1008
2017-08-25T14:28:07.445Z,1060
2017-08-25T14:29:17.874Z,1072
2017-08-25T14:30:26.595Z,1072
2017-08-25T14:31:35.716Z,1068
2017-08-25T14:32:45.420Z,1052
2017-08-25T14:33:54.429Z,1048
2017-08-25T14:35:03.802Z,1052
2017-08-25T14:36:12.695Z,1024
2017-08-25T14:37:22.307Z,1004
2017-08-25T14:38:31.787Z,960
2017-08-25T14:39:40.774Z,944
2017-08-25T14:40:50.392Z,948
2017-08-25T14:41:59.709Z,872
2017-08-25T14:43:08.706Z,668
2017-08-25T14:44:17.438Z,456
2017-08-25T14:45:26.784Z,288
2017-08-25T14:46:35.456Z,196
2017-08-25T14:47:45.111Z,148
2017-08-25T14:48:54.403Z,156
2017-08-25T14:50:03.121Z,220
2017-08-25T14:51:12.417Z,300
2017-08-25T14:52:21.731Z,360
2017-08-25T14:53:31.349Z,392
2017-08-25T14:54:40.345Z,396
2017-08-25T14:55:49.329Z,424
2017-08-25T14:56:58.008Z,464
2017-08-25T14:58:06.672Z,556
2017-08-25T14:59:15.650Z,676
2017-08-25T15:00:24.354Z,760
2017-08-25T15:01:34.092Z,836
2017-08-25T15:02:42.765Z,888
2017-08-25T15:03:52.391Z,964
2017-08-25T15:05:01.367Z,1056
2017-08-25T15:06:10.489Z,1152
2017-08-25T15:07:19.820Z,1236
2017-08-25T15:08:28.501Z,1300
2017-08-25T15:09:37.180Z,1324
2017-08-25T15:10:46.217Z,1316
2017-08-25T15:11:55.235Z,1308
2017-08-25T15:13:05.012Z,1284
2017-08-25T15:14:13.682Z,1256
2017-08-25T15:15:22.690Z,1228
2017-08-25T15:16:32.026Z,1184
2017-08-25T15:17:41.047Z,1128
2017-08-25T15:18:49.775Z,1068
2017-08-25T15:19:59.099Z,1024
2017-08-25T15:21:08.105Z,972
2017-08-25T15:22:17.442Z,920
2017-08-25T15:23:26.434Z,884
2017-08-25T15:24:35.871Z,856
2017-08-25T15:25:44.853Z,820
2017-08-25T15:26:54.145Z,796
2017-08-25T15:28:03.498Z,804
2017-08-25T15:29:12.178Z,820
2017-08-25T15:30:20.851Z,852
2017-08-25T15:31:29.839Z,860
2017-08-25T15:32:39.180Z,876
2017-08-25T15:33:48.490Z,896
2017-08-25T15:34:58.112Z,876
2017-08-25T15:36:06.832Z,880
2017-08-25T15:37:15.842Z,852
2017-08-25T15:38:25.137Z,844
2017-08-25T15:39:33.818Z,836
2017-08-25T15:40:43.127Z,812
2017-08-25T15:41:52.596Z,832
2017-08-25T15:43:01.263Z,844
2017-08-25T15:44:10.902Z,800
2017-08-25T15:45:19.581Z,756
2017-08-25T15:46:28.572Z,720
2017-08-25T15:47:37.725Z,680
2017-08-25T15:48:46.413Z,668
2017-08-25T15:49:55.726Z,672
2017-08-25T15:51:04.735Z,648
2017-08-25T15:52:13.733Z,620
2017-08-25T15:53:22.497Z,572